createdAt,value
2018-09-13T00:00:12.117Z,13.10
2018-09-13T00:01:17.496Z,13.10
2018-09-13T00:02:22.898Z,13.10
2018-09-13T00:03:28.276Z,13.10
2018-09-13T00:04:33.733Z,13.10
2018-09-13T00:05:39.148Z,13.10
2018-09-13T00:06:44.593Z,13.10
2018-09-13T00:07:50.085Z,13.10
2018-09-13T00:08:55.545Z,13.10
2018-09-13T00:10:01.498Z,13.10
2018-09-13T00:11:07.441Z,13.10
2018-09-13T00:12:13.012Z,13.10
2018-09-13T00:13:18.397Z,13.20
2018-09-13T00:14:23.901Z,13.20
2018-09-13T00:15:29.402Z,13.10
2018-09-13T00:16:34.893Z,13.10
2018-09-13T00:17:40.328Z,13.20
2018-09-13T00:18:45.856Z,13.20
2018-09-13T00:19:51.582Z,13.10
2018-09-13T00:20:57.129Z,13.20
2018-09-13T00:22:02.616Z,13.20
2018-09-13T00:23:08.758Z,13.20
2018-09-13T00:24:14.229Z,13.20
2018-09-13T00:25:19.650Z,13.20
2018-09-13T00:26:25.045Z,13.20
2018-09-13T00:27:30.438Z,13.20
2018-09-13T00:28:35.891Z,13.20
2018-09-13T00:29:41.312Z,13.20
2018-09-13T00:30:46.729Z,13.20
2018-09-13T00:31:52.128Z,13.10
2018-09-13T00:32:59.911Z,13.10
2018-09-13T00:34:05.411Z,13.10
2018-09-13T00:35:10.768Z,13.10
2018-09-13T00:36:16.180Z,13.10
2018-09-13T00:37:21.593Z,13.10
2018-09-13T00:38:27.041Z,13.10
2018-09-13T00:39:32.439Z,13.10
2018-09-13T00:40:37.866Z,13.00
2018-09-13T00:41:43.312Z,13.00
2018-09-13T00:42:48.736Z,13.10
2018-09-13T00:43:54.231Z,13.00
2018-09-13T00:44:59.693Z,13.10
2018-09-13T00:46:05.217Z,13.00
2018-09-13T00:47:12.951Z,13.00
2018-09-13T00:48:18.493Z,13.00
2018-09-13T00:49:24.006Z,13.00
2018-09-13T00:50:29.435Z,13.00
2018-09-13T00:51:35.197Z,12.90
2018-09-13T00:52:40.701Z,12.90
2018-09-13T00:53:46.097Z,12.90
2018-09-13T00:54:51.517Z,12.90
2018-09-13T00:55:57.009Z,12.80
2018-09-13T00:57:02.705Z,12.80
2018-09-13T00:58:08.116Z,12.80
2018-09-13T00:59:13.526Z,12.80
2018-09-13T01:00:18.996Z,12.80
2018-09-13T01:01:24.376Z,12.80
2018-09-13T01:02:29.960Z,12.80
2018-09-13T01:03:35.367Z,12.70
2018-09-13T01:04:40.768Z,12.70
2018-09-13T01:05:46.212Z,12.70
2018-09-13T01:06:51.662Z,12.60
2018-09-13T01:07:57.256Z,12.60
2018-09-13T01:09:02.684Z,12.60
2018-09-13T01:10:08.128Z,12.60
2018-09-13T01:11:13.549Z,12.60
2018-09-13T01:12:19.037Z,12.60
2018-09-13T01:13:25.061Z,12.60
2018-09-13T01:14:30.500Z,12.50
2018-09-13T01:15:35.889Z,12.50
2018-09-13T01:16:41.328Z,12.50
2018-09-13T01:17:46.798Z,12.50
2018-09-13T01:18:52.317Z,12.50
2018-09-13T01:19:57.773Z,12.50
2018-09-13T01:21:03.312Z,12.50
2018-09-13T01:22:08.828Z,12.40
2018-09-13T01:23:14.264Z,12.50
2018-09-13T01:24:19.694Z,12.40
2018-09-13T01:25:25.185Z,12.40
2018-09-13T01:26:30.657Z,12.40
2018-09-13T01:27:36.073Z,12.40
2018-09-13T01:28:41.520Z,12.40
2018-09-13T01:29:46.932Z,12.40
2018-09-13T01:30:52.541Z,12.40
2018-09-13T01:31:58.213Z,12.40
2018-09-13T01:33:03.748Z,12.40
2018-09-13T01:34:09.202Z,12.40
2018-09-13T01:35:14.644Z,12.40
2018-09-13T01:36:20.278Z,12.40
2018-09-13T01:37:25.789Z,12.40
2018-09-13T01:38:31.180Z,12.30
2018-09-13T01:39:36.610Z,12.40
2018-09-13T01:40:41.988Z,12.40
2018-09-13T01:41:47.392Z,12.40
2018-09-13T01:42:52.823Z,12.30
2018-09-13T01:43:58.272Z,12.30
2018-09-13T01:45:03.734Z,12.30
2018-09-13T01:46:09.162Z,12.30
2018-09-13T01:47:14.589Z,12.30
2018-09-13T01:48:20.029Z,12.30
2018-09-13T01:49:25.735Z,12.30
2018-09-13T01:50:31.336Z,12.30
2018-09-13T01:51:36.752Z,12.30
2018-09-13T01:52:42.140Z,12.20
2018-09-13T01:53:47.532Z,12.20
2018-09-13T01:54:53.229Z,12.20
2018-09-13T01:55:58.708Z,12.20
2018-09-13T01:57:05.008Z,12.20
2018-09-13T01:58:10.524Z,12.20
2018-09-13T01:59:15.902Z,12.20
2018-09-13T02:00:21.427Z,12.20
2018-09-13T02:01:26.898Z,12.20
2018-09-13T02:02:32.283Z,12.20
2018-09-13T02:03:37.679Z,12.30
2018-09-13T02:04:43.078Z,12.20
2018-09-13T02:05:48.519Z,12.30
2018-09-13T02:06:54.177Z,12.30
2018-09-13T02:07:59.612Z,12.30
2018-09-13T02:09:07.166Z,12.40
2018-09-13T02:10:12.581Z,12.40
2018-09-13T02:11:18.342Z,12.40
2018-09-13T02:12:23.789Z,12.40
2018-09-13T02:13:29.236Z,12.50
2018-09-13T02:14:34.600Z,12.50
2018-09-13T02:15:40.025Z,12.50
2018-09-13T02:16:45.459Z,12.50
2018-09-13T02:17:50.821Z,12.50
2018-09-13T02:18:56.208Z,12.50
2018-09-13T02:20:01.595Z,12.50
2018-09-13T02:21:07.196Z,12.50
2018-09-13T02:22:12.581Z,12.50
2018-09-13T02:23:18.224Z,12.50
2018-09-13T02:24:23.594Z,12.50
2018-09-13T02:25:28.988Z,12.60
2018-09-13T02:26:34.389Z,12.60
2018-09-13T02:27:39.850Z,12.60
2018-09-13T02:28:45.297Z,12.60
2018-09-13T02:29:50.717Z,12.60
2018-09-13T02:30:56.124Z,12.60
2018-09-13T02:32:01.667Z,12.60
2018-09-13T02:33:07.273Z,12.60
2018-09-13T02:34:12.691Z,12.60
2018-09-13T02:35:18.201Z,12.60
2018-09-13T02:36:23.604Z,12.70
2018-09-13T02:37:29.096Z,12.70
2018-09-13T02:38:34.509Z,12.70
2018-09-13T02:39:39.884Z,12.70
2018-09-13T02:40:45.397Z,12.60
2018-09-13T02:41:50.880Z,12.70
2018-09-13T02:42:56.417Z,12.70
2018-09-13T02:44:01.821Z,12.60
2018-09-13T02:45:07.360Z,12.60
2018-09-13T02:46:13.126Z,12.60
2018-09-13T02:47:18.488Z,12.60
2018-09-13T02:48:23.900Z,12.60
2018-09-13T02:49:29.377Z,12.60
2018-09-13T02:50:34.812Z,12.60
2018-09-13T02:51:40.228Z,12.70
2018-09-13T02:52:45.689Z,12.60
2018-09-13T02:53:51.164Z,12.60
2018-09-13T02:54:56.617Z,12.60
2018-09-13T02:56:02.053Z,12.70
2018-09-13T02:57:07.484Z,12.70
2018-09-13T02:58:12.920Z,12.70
2018-09-13T02:59:18.369Z,12.70
2018-09-13T03:00:23.842Z,12.70
2018-09-13T03:01:29.293Z,12.60
2018-09-13T03:02:34.688Z,12.60
2018-09-13T03:03:40.146Z,12.60
2018-09-13T03:04:45.598Z,12.60
2018-09-13T03:05:51.000Z,12.60
2018-09-13T03:06:56.480Z,12.50
2018-09-13T03:08:01.865Z,12.60
2018-09-13T03:09:11.297Z,12.60
2018-09-13T03:10:16.782Z,12.50
2018-09-13T03:11:22.197Z,12.50
2018-09-13T03:12:27.932Z,12.50
2018-09-13T03:13:33.338Z,12.50
2018-09-13T03:14:38.749Z,12.40
2018-09-13T03:15:44.194Z,12.40
2018-09-13T03:16:49.610Z,12.40
2018-09-13T03:17:55.163Z,12.30
2018-09-13T03:19:00.599Z,12.30
2018-09-13T03:20:06.140Z,12.30
2018-09-13T03:21:11.641Z,12.30
2018-09-13T03:22:17.138Z,12.30
2018-09-13T03:23:22.617Z,12.20
2018-09-13T03:24:28.218Z,12.20
2018-09-13T03:25:33.657Z,12.20
2018-09-13T03:26:39.132Z,12.20
2018-09-13T03:27:44.917Z,12.20
2018-09-13T03:28:50.447Z,12.10
2018-09-13T03:29:55.901Z,12.10
2018-09-13T03:31:01.358Z,12.10
2018-09-13T03:32:06.769Z,12.00
2018-09-13T03:33:12.361Z,12.00
2018-09-13T03:34:17.801Z,12.00
2018-09-13T03:35:23.379Z,11.90
2018-09-13T03:36:28.857Z,11.90
2018-09-13T03:37:34.269Z,11.90
2018-09-13T03:38:39.777Z,11.80
2018-09-13T03:39:45.279Z,11.80
2018-09-13T03:40:50.808Z,11.80
2018-09-13T03:41:56.561Z,11.80
2018-09-13T03:43:02.005Z,11.80
2018-09-13T03:44:07.665Z,11.80
2018-09-13T03:45:13.060Z,11.70
2018-09-13T03:46:20.245Z,11.70
2018-09-13T03:47:25.869Z,11.70
2018-09-13T03:48:31.313Z,11.70
2018-09-13T03:49:36.820Z,11.70
2018-09-13T03:50:42.252Z,11.60
2018-09-13T03:51:47.721Z,11.60
2018-09-13T03:52:53.159Z,11.60
2018-09-13T03:53:58.669Z,11.50
2018-09-13T03:55:04.206Z,11.60
2018-09-13T03:56:09.733Z,11.50
2018-09-13T03:57:15.180Z,11.50
2018-09-13T03:58:20.612Z,11.60
2018-09-13T03:59:26.177Z,11.50
2018-09-13T04:00:31.586Z,11.50
2018-09-13T04:01:36.996Z,11.50
2018-09-13T04:02:42.417Z,11.50
2018-09-13T04:03:47.915Z,11.50
2018-09-13T04:04:53.643Z,11.50
2018-09-13T04:05:59.133Z,11.40
2018-09-13T04:07:04.524Z,11.40
2018-09-13T04:08:10.141Z,11.40
2018-09-13T04:09:15.661Z,11.40
2018-09-13T04:10:21.131Z,11.40
2018-09-13T04:11:26.569Z,11.40
2018-09-13T04:12:31.978Z,11.40
2018-09-13T04:13:37.481Z,11.30
2018-09-13T04:14:42.954Z,11.30
2018-09-13T04:15:48.441Z,11.30
2018-09-13T04:16:53.877Z,11.30
2018-09-13T04:17:59.322Z,11.30
2018-09-13T04:19:04.797Z,11.30
2018-09-13T04:20:10.256Z,11.30
2018-09-13T04:21:15.651Z,11.20
2018-09-13T04:22:21.085Z,11.20
2018-09-13T04:23:26.545Z,11.20
2018-09-13T04:24:32.109Z,11.20
2018-09-13T04:25:37.533Z,11.20
2018-09-13T04:26:42.909Z,11.10
2018-09-13T04:27:48.513Z,11.10
2018-09-13T04:28:53.921Z,11.10
2018-09-13T04:29:59.417Z,11.00
2018-09-13T04:31:04.940Z,11.00
2018-09-13T04:32:10.393Z,10.90
2018-09-13T04:33:16.201Z,10.90
2018-09-13T04:34:21.579Z,10.80
2018-09-13T04:35:26.951Z,10.80
2018-09-13T04:36:32.439Z,10.80
2018-09-13T04:37:37.909Z,10.80
2018-09-13T04:38:43.360Z,10.80
2018-09-13T04:39:48.785Z,10.70
2018-09-13T04:40:54.221Z,10.80
2018-09-13T04:41:59.717Z,10.80
2018-09-13T04:43:05.304Z,10.80
2018-09-13T04:44:10.797Z,10.70
2018-09-13T04:45:16.260Z,10.70
2018-09-13T04:46:21.681Z,10.70
2018-09-13T04:47:27.065Z,10.70
2018-09-13T04:48:33.416Z,10.70
2018-09-13T04:49:38.885Z,10.60
2018-09-13T04:50:44.493Z,10.70
2018-09-13T04:51:50.299Z,10.60
2018-09-13T04:52:55.698Z,10.70
2018-09-13T04:54:01.097Z,10.60
2018-09-13T04:55:06.603Z,10.60
2018-09-13T04:56:12.117Z,10.60
2018-09-13T04:57:17.565Z,10.60
2018-09-13T04:58:23.024Z,10.50
2018-09-13T04:59:28.401Z,10.50
2018-09-13T05:00:33.800Z,10.50
2018-09-13T05:01:40.917Z,10.50
2018-09-13T05:02:46.303Z,10.50
2018-09-13T05:03:51.688Z,10.50
2018-09-13T05:04:57.098Z,10.40
2018-09-13T05:06:02.495Z,10.40
2018-09-13T05:07:08.038Z,10.50
2018-09-13T05:08:13.448Z,10.40
2018-09-13T05:09:18.852Z,10.40
2018-09-13T05:10:24.280Z,10.50
2018-09-13T05:11:29.801Z,10.40
2018-09-13T05:12:35.284Z,10.40
2018-09-13T05:13:40.737Z,10.50
2018-09-13T05:14:46.197Z,10.50
2018-09-13T05:15:51.656Z,10.50
2018-09-13T05:16:57.214Z,10.50
2018-09-13T05:18:02.580Z,10.60
2018-09-13T05:19:08.355Z,10.60
2018-09-13T05:20:13.757Z,10.60
2018-09-13T05:21:19.265Z,10.70
2018-09-13T05:22:24.712Z,10.70
2018-09-13T05:23:30.125Z,10.60
2018-09-13T05:24:35.610Z,10.60
2018-09-13T05:25:40.998Z,10.60
2018-09-13T05:26:46.476Z,10.60
2018-09-13T05:27:52.010Z,10.50
2018-09-13T05:28:57.509Z,10.50
2018-09-13T05:30:03.103Z,10.50
2018-09-13T05:31:09.054Z,10.50
2018-09-13T05:32:14.520Z,10.40
2018-09-13T05:33:19.985Z,10.40
2018-09-13T05:34:25.384Z,10.40
2018-09-13T05:35:30.760Z,10.40
2018-09-13T05:36:36.213Z,10.40
2018-09-13T05:37:41.629Z,10.40
2018-09-13T05:38:47.050Z,10.40
2018-09-13T05:39:52.441Z,10.40
2018-09-13T05:40:57.908Z,10.40
2018-09-13T05:42:03.704Z,10.50
2018-09-13T05:43:09.216Z,10.40
2018-09-13T05:44:15.070Z,10.50
2018-09-13T05:45:20.505Z,10.50
2018-09-13T05:46:25.952Z,10.50
2018-09-13T05:47:31.420Z,10.60
2018-09-13T05:48:36.989Z,10.50
2018-09-13T05:49:42.640Z,10.60
2018-09-13T05:50:48.086Z,10.60
2018-09-13T05:51:53.729Z,10.60
2018-09-13T05:52:59.209Z,10.70
2018-09-13T05:54:04.713Z,10.70
2018-09-13T05:55:10.146Z,10.70
2018-09-13T05:56:15.561Z,10.70
2018-09-13T05:57:21.093Z,10.70
2018-09-13T05:58:26.569Z,10.80
2018-09-13T05:59:31.979Z,10.80
2018-09-13T06:00:37.397Z,10.80
2018-09-13T06:01:42.853Z,10.80
2018-09-13T06:02:48.253Z,10.90
2018-09-13T06:03:53.706Z,11.00
2018-09-13T06:04:59.104Z,11.00
2018-09-13T06:06:04.537Z,11.00
2018-09-13T06:07:09.949Z,11.10
2018-09-13T06:08:15.475Z,11.10
2018-09-13T06:09:20.885Z,11.20
2018-09-13T06:10:26.361Z,11.30
2018-09-13T06:11:31.828Z,11.30
2018-09-13T06:12:37.344Z,11.30
2018-09-13T06:13:42.824Z,11.20
2018-09-13T06:14:48.414Z,11.20
2018-09-13T06:15:53.812Z,11.30
2018-09-13T06:16:59.273Z,11.40
2018-09-13T06:18:04.828Z,11.40
2018-09-13T06:19:10.383Z,11.40
2018-09-13T06:20:15.889Z,11.40
2018-09-13T06:21:21.317Z,11.40
2018-09-13T06:22:26.804Z,11.40
2018-09-13T06:23:32.225Z,11.40
2018-09-13T06:24:37.861Z,11.40
2018-09-13T06:25:43.350Z,11.40
2018-09-13T06:26:48.811Z,11.50
2018-09-13T06:27:54.189Z,11.60
2018-09-13T06:28:59.604Z,11.50
2018-09-13T06:30:05.236Z,11.60
2018-09-13T06:31:10.686Z,11.60
2018-09-13T06:32:16.305Z,11.60
2018-09-13T06:33:21.798Z,11.70
2018-09-13T06:34:27.273Z,11.70
2018-09-13T06:35:32.741Z,11.70
2018-09-13T06:36:38.485Z,11.80
2018-09-13T06:37:44.052Z,11.80
2018-09-13T06:38:49.504Z,11.80
2018-09-13T06:39:55.117Z,11.80
2018-09-13T06:41:00.564Z,11.90
2018-09-13T06:42:06.018Z,11.90
2018-09-13T06:43:11.573Z,12.00
2018-09-13T06:44:17.014Z,12.10
2018-09-13T06:45:22.428Z,12.10
2018-09-13T06:46:27.851Z,12.10
2018-09-13T06:47:33.289Z,12.20
2018-09-13T06:48:38.733Z,12.20
2018-09-13T06:49:44.115Z,12.30
2018-09-13T06:50:49.657Z,12.30
2018-09-13T06:51:55.061Z,12.30
2018-09-13T06:53:00.474Z,12.50
2018-09-13T06:54:06.151Z,12.50
2018-09-13T06:55:11.845Z,12.50
2018-09-13T06:56:17.322Z,12.50
2018-09-13T06:57:23.101Z,12.50
2018-09-13T06:58:28.582Z,12.60
2018-09-13T06:59:34.022Z,12.60
2018-09-13T07:00:39.530Z,12.70
2018-09-13T07:01:44.961Z,12.80
2018-09-13T07:02:50.337Z,12.90
2018-09-13T07:03:55.864Z,12.90
2018-09-13T07:05:01.322Z,12.90
2018-09-13T07:06:07.169Z,13.00
2018-09-13T07:07:12.645Z,13.00
2018-09-13T07:08:18.078Z,13.00
2018-09-13T07:09:23.465Z,13.00
2018-09-13T07:10:28.972Z,13.10
2018-09-13T07:11:34.398Z,13.00
2018-09-13T07:12:39.803Z,13.00
2018-09-13T07:13:45.281Z,13.10
2018-09-13T07:14:50.812Z,13.20
2018-09-13T07:15:56.176Z,13.20
2018-09-13T07:17:01.688Z,13.30
2018-09-13T07:18:07.756Z,13.30
2018-09-13T07:19:13.205Z,13.40
2018-09-13T07:20:18.647Z,13.40
2018-09-13T07:21:24.070Z,13.50
2018-09-13T07:22:29.572Z,13.60
2018-09-13T07:23:35.089Z,13.70
2018-09-13T07:24:40.525Z,13.80
2018-09-13T07:25:45.987Z,13.90
2018-09-13T07:26:51.428Z,13.80
2018-09-13T07:27:56.805Z,13.90
2018-09-13T07:29:02.346Z,13.90
2018-09-13T07:30:07.936Z,13.90
2018-09-13T07:31:13.442Z,13.90
2018-09-13T07:32:18.868Z,13.90
2018-09-13T07:33:24.278Z,14.00
2018-09-13T07:34:29.808Z,14.00
2018-09-13T07:35:35.270Z,14.00
2018-09-13T07:36:40.798Z,13.90
2018-09-13T07:37:46.255Z,14.00
2018-09-13T07:38:52.124Z,14.00
2018-09-13T07:39:57.560Z,14.10
2018-09-13T07:41:03.011Z,14.20
2018-09-13T07:42:08.481Z,14.30
2018-09-13T07:43:13.970Z,14.40
2018-09-13T07:44:19.456Z,14.40
2018-09-13T07:45:24.957Z,14.50
2018-09-13T07:46:30.783Z,14.50
2018-09-13T07:47:36.166Z,14.50
2018-09-13T07:48:41.577Z,14.60
2018-09-13T07:49:47.124Z,14.60
2018-09-13T07:50:52.458Z,14.70
2018-09-13T07:51:57.885Z,14.70
2018-09-13T07:53:03.465Z,14.70
2018-09-13T07:54:08.980Z,14.80
2018-09-13T07:55:14.488Z,14.80
2018-09-13T07:56:19.931Z,14.90
2018-09-13T07:57:25.317Z,14.90
2018-09-13T07:58:30.769Z,15.00
2018-09-13T07:59:36.187Z,15.00
2018-09-13T08:00:41.697Z,15.00
2018-09-13T08:01:47.108Z,15.00
2018-09-13T08:02:52.525Z,15.00
2018-09-13T08:03:58.140Z,15.10
2018-09-13T08:05:03.881Z,15.20
2018-09-13T08:06:09.841Z,15.20
2018-09-13T08:07:15.257Z,15.30
2018-09-13T08:08:20.750Z,15.20
2018-09-13T08:09:26.149Z,15.20
2018-09-13T08:10:31.606Z,15.40
2018-09-13T08:11:37.077Z,15.40
2018-09-13T08:12:42.426Z,15.40
2018-09-13T08:13:47.832Z,15.40
2018-09-13T08:14:53.232Z,15.60
2018-09-13T08:15:58.655Z,15.60
2018-09-13T08:17:04.109Z,15.60
2018-09-13T08:18:09.674Z,15.70
2018-09-13T08:19:15.181Z,15.70
2018-09-13T08:20:20.696Z,15.70
2018-09-13T08:21:26.148Z,15.80
2018-09-13T08:22:31.508Z,15.90
2018-09-13T08:23:36.933Z,16.00
2018-09-13T08:24:42.493Z,16.00
2018-09-13T08:25:47.973Z,16.00
2018-09-13T08:26:53.449Z,16.00
2018-09-13T08:27:58.922Z,16.10
2018-09-13T08:29:04.442Z,16.10
2018-09-13T08:30:09.945Z,16.20
2018-09-13T08:31:15.381Z,16.20
2018-09-13T08:32:20.844Z,16.10
2018-09-13T08:33:26.410Z,16.10
2018-09-13T08:34:31.770Z,16.10
2018-09-13T08:35:37.229Z,16.20
2018-09-13T08:36:42.687Z,16.20
2018-09-13T08:37:48.128Z,16.20
2018-09-13T08:38:53.623Z,16.30
2018-09-13T08:39:59.100Z,16.30
2018-09-13T08:41:04.529Z,16.20
2018-09-13T08:42:09.978Z,16.20
2018-09-13T08:43:15.704Z,16.20
2018-09-13T08:44:21.048Z,16.20
2018-09-13T08:45:26.489Z,16.40
2018-09-13T08:46:31.941Z,16.50
2018-09-13T08:47:37.463Z,16.50
2018-09-13T08:48:42.847Z,16.50
2018-09-13T08:49:48.265Z,16.50
2018-09-13T08:50:53.738Z,16.60
2018-09-13T08:51:59.163Z,16.60
2018-09-13T08:53:04.600Z,16.60
2018-09-13T08:54:10.145Z,16.70
2018-09-13T08:55:15.713Z,16.70
2018-09-13T08:56:21.161Z,16.70
2018-09-13T08:57:26.546Z,16.70
2018-09-13T08:58:31.946Z,16.80
2018-09-13T08:59:37.781Z,16.80
2018-09-13T09:00:43.206Z,16.80
2018-09-13T09:01:48.676Z,16.90
2018-09-13T09:02:54.129Z,16.80
2018-09-13T09:03:59.510Z,16.90
2018-09-13T09:05:05.176Z,16.80
2018-09-13T09:06:10.667Z,16.90
2018-09-13T09:07:16.183Z,16.90
2018-09-13T09:08:21.590Z,17.00
2018-09-13T09:09:27.038Z,17.10
2018-09-13T09:10:32.536Z,17.20
2018-09-13T09:11:37.945Z,17.30
2018-09-13T09:12:43.321Z,17.30
2018-09-13T09:13:49.086Z,17.20
2018-09-13T09:14:54.508Z,17.20
2018-09-13T09:15:59.956Z,17.10
2018-09-13T09:17:05.363Z,17.10
2018-09-13T09:18:11.012Z,17.20
2018-09-13T09:19:16.429Z,17.20
2018-09-13T09:20:21.964Z,17.30
2018-09-13T09:21:27.441Z,17.40
2018-09-13T09:22:32.892Z,17.50
2018-09-13T09:23:38.329Z,17.50
2018-09-13T09:24:43.750Z,17.60
2018-09-13T09:25:49.136Z,17.80
2018-09-13T09:26:54.625Z,17.90
2018-09-13T09:28:00.068Z,17.90
2018-09-13T09:29:05.672Z,18.10
2018-09-13T09:30:11.021Z,18.10
2018-09-13T09:31:16.481Z,18.30
2018-09-13T09:32:21.926Z,18.40
2018-09-13T09:33:27.384Z,18.40
2018-09-13T09:34:32.957Z,18.50
2018-09-13T09:35:38.464Z,18.60
2018-09-13T09:36:43.982Z,18.60
2018-09-13T09:37:49.389Z,18.60
2018-09-13T09:38:54.805Z,18.60
2018-09-13T09:40:00.203Z,18.50
2018-09-13T09:41:05.625Z,18.40
2018-09-13T09:42:11.081Z,18.30
2018-09-13T09:43:16.481Z,18.30
2018-09-13T09:44:21.982Z,18.20
2018-09-13T09:45:27.381Z,18.10
2018-09-13T09:46:32.814Z,17.80
2018-09-13T09:47:38.278Z,17.80
2018-09-13T09:48:43.656Z,17.80
2018-09-13T09:49:49.062Z,17.80
2018-09-13T09:50:54.506Z,17.90
2018-09-13T09:51:59.955Z,18.00
2018-09-13T09:53:05.812Z,18.00
2018-09-13T09:54:11.308Z,18.10
2018-09-13T09:55:20.825Z,18.10
2018-09-13T09:56:26.463Z,18.10
2018-09-13T09:57:31.941Z,18.10
2018-09-13T09:58:37.342Z,18.10
2018-09-13T09:59:42.746Z,18.10
2018-09-13T10:00:53.393Z,18.10
2018-09-13T10:02:04.080Z,18.10
2018-09-13T10:03:09.507Z,17.90
2018-09-13T10:04:14.961Z,17.80
2018-09-13T10:05:20.473Z,17.70
2018-09-13T10:06:25.915Z,17.60
2018-09-13T10:07:31.388Z,17.40
2018-09-13T10:08:36.829Z,17.40
2018-09-13T10:09:43.109Z,17.30
2018-09-13T10:10:48.465Z,17.30
2018-09-13T10:11:53.946Z,17.20
2018-09-13T10:12:59.356Z,17.20
2018-09-13T10:14:05.229Z,17.30
2018-09-13T10:15:15.865Z,17.30
2018-09-13T10:16:26.354Z,17.40
2018-09-13T10:17:36.912Z,17.60
2018-09-13T10:18:44.585Z,17.70
2018-09-13T10:19:55.133Z,18.00
2018-09-13T10:21:05.630Z,18.30
2018-09-13T10:22:16.080Z,18.60
2018-09-13T10:23:27.672Z,18.90
2018-09-13T10:24:38.216Z,19.00
2018-09-13T10:25:48.823Z,18.90
2018-09-13T10:26:59.536Z,18.70
2018-09-13T10:28:10.185Z,18.50
2018-09-13T10:29:21.560Z,18.30
2018-09-13T10:30:32.125Z,18.20
2018-09-13T10:31:42.992Z,18.20
2018-09-13T10:32:53.592Z,18.30
2018-09-13T10:34:04.252Z,18.20
2018-09-13T10:35:14.889Z,18.20
2018-09-13T10:36:25.680Z,18.20
2018-09-13T10:37:36.230Z,18.10
2018-09-13T10:38:46.960Z,18.10
2018-09-13T10:39:57.516Z,18.20
2018-09-13T10:41:08.310Z,18.40
2018-09-13T10:42:18.868Z,18.60
2018-09-13T10:43:29.576Z,18.70
2018-09-13T10:44:40.110Z,18.70
2018-09-13T10:45:50.731Z,18.70
2018-09-13T10:47:01.213Z,18.80
2018-09-13T10:48:12.215Z,18.90
2018-09-13T10:49:22.936Z,19.00
2018-09-13T10:50:31.506Z,19.20
2018-09-13T10:51:42.249Z,19.30
2018-09-13T10:52:50.481Z,19.30
2018-09-13T10:54:01.918Z,19.50
2018-09-13T10:55:07.770Z,19.60
2018-09-13T10:56:13.597Z,19.50
2018-09-13T10:57:24.183Z,19.40
2018-09-13T10:58:29.915Z,19.50
2018-09-13T10:59:35.289Z,19.50
2018-09-13T11:00:40.705Z,19.60
2018-09-13T11:01:46.129Z,19.60
2018-09-13T11:02:51.720Z,19.80
2018-09-13T11:03:57.234Z,19.80
2018-09-13T11:05:02.648Z,19.90
2018-09-13T11:06:08.517Z,19.90
2018-09-13T11:07:13.941Z,19.90
2018-09-13T11:08:19.454Z,19.70
2018-09-13T11:09:24.992Z,19.50
2018-09-13T11:10:30.445Z,19.30
2018-09-13T11:11:35.963Z,19.10
2018-09-13T11:12:48.112Z,18.90
2018-09-13T11:13:57.711Z,18.80
2018-09-13T11:15:06.371Z,18.80
2018-09-13T11:16:11.820Z,18.90
2018-09-13T11:17:17.321Z,19.10
2018-09-13T11:18:22.764Z,19.10
2018-09-13T11:19:28.108Z,19.20
2018-09-13T11:20:34.044Z,19.10
2018-09-13T11:21:39.525Z,19.20
2018-09-13T11:22:45.045Z,19.30
2018-09-13T11:23:50.527Z,19.50
2018-09-13T11:24:55.960Z,19.70
2018-09-13T11:26:01.389Z,19.80
2018-09-13T11:27:06.940Z,19.90
2018-09-13T11:28:12.836Z,19.80
2018-09-13T11:29:18.396Z,19.70
2018-09-13T11:30:24.102Z,19.70
2018-09-13T11:31:29.558Z,19.70
2018-09-13T11:32:35.052Z,19.60
2018-09-13T11:33:40.795Z,19.60
2018-09-13T11:34:46.251Z,19.50
2018-09-13T11:35:51.792Z,19.40
2018-09-13T11:36:57.192Z,19.40
2018-09-13T11:38:02.620Z,19.40
2018-09-13T11:39:11.426Z,19.40
2018-09-13T11:40:17.022Z,19.60
2018-09-13T11:41:22.357Z,19.70
2018-09-13T11:42:27.728Z,19.90
2018-09-13T11:43:33.201Z,20.00
2018-09-13T11:44:38.801Z,20.10
2018-09-13T11:45:44.232Z,20.10
2018-09-13T11:46:49.620Z,20.20
2018-09-13T11:47:55.069Z,20.20
2018-09-13T11:49:00.497Z,20.10
2018-09-13T11:50:06.576Z,20.10
2018-09-13T11:51:12.174Z,20.10
2018-09-13T11:52:17.601Z,20.10
2018-09-13T11:53:23.141Z,20.10
2018-09-13T11:54:28.714Z,20.00
2018-09-13T11:55:37.275Z,20.00
2018-09-13T11:56:42.688Z,20.00
2018-09-13T11:57:48.117Z,20.00
2018-09-13T11:58:53.513Z,20.00
2018-09-13T11:59:58.893Z,20.10
2018-09-13T12:01:04.428Z,20.20
2018-09-13T12:02:09.842Z,20.20
2018-09-13T12:03:15.467Z,20.20
2018-09-13T12:04:21.058Z,20.10
2018-09-13T12:05:26.513Z,20.00
2018-09-13T12:06:32.080Z,19.90
2018-09-13T12:07:37.484Z,19.90
2018-09-13T12:08:42.876Z,19.80
2018-09-13T12:09:48.291Z,19.70
2018-09-13T12:10:53.745Z,19.60
2018-09-13T12:11:59.145Z,19.60
2018-09-13T12:13:04.637Z,19.60
2018-09-13T12:14:10.433Z,19.60
2018-09-13T12:15:15.868Z,19.70
2018-09-13T12:16:21.305Z,19.80
2018-09-13T12:17:26.797Z,19.70
2018-09-13T12:18:32.293Z,19.70
2018-09-13T12:19:37.711Z,19.80
2018-09-13T12:20:43.121Z,19.90
2018-09-13T12:21:48.548Z,19.90
2018-09-13T12:22:53.989Z,20.00
2018-09-13T12:23:59.424Z,20.00
2018-09-13T12:25:04.897Z,20.00
2018-09-13T12:26:10.293Z,20.00
2018-09-13T12:27:16.122Z,20.00
2018-09-13T12:28:21.581Z,20.10
2018-09-13T12:29:27.026Z,20.20
2018-09-13T12:30:32.496Z,20.20
2018-09-13T12:31:37.881Z,20.30
2018-09-13T12:32:43.377Z,20.30
2018-09-13T12:33:49.074Z,20.30
2018-09-13T12:34:54.681Z,20.50
2018-09-13T12:36:00.116Z,20.50
2018-09-13T12:37:06.145Z,20.50
2018-09-13T12:38:11.590Z,20.70
2018-09-13T12:39:16.995Z,20.70
2018-09-13T12:40:22.467Z,20.80
2018-09-13T12:41:27.869Z,20.90
2018-09-13T12:42:33.305Z,20.80
2018-09-13T12:43:38.830Z,20.90
2018-09-13T12:44:44.329Z,21.10
2018-09-13T12:45:49.813Z,21.20
2018-09-13T12:46:55.229Z,21.20
2018-09-13T12:48:00.672Z,21.40
2018-09-13T12:49:06.145Z,21.60
2018-09-13T12:50:11.737Z,21.70
2018-09-13T12:51:17.433Z,21.70
2018-09-13T12:52:22.889Z,21.60
2018-09-13T12:53:28.288Z,21.80
2018-09-13T12:54:33.744Z,21.80
2018-09-13T12:55:44.304Z,22.00
2018-09-13T12:56:49.781Z,22.10
2018-09-13T12:57:55.113Z,22.20
2018-09-13T12:59:00.608Z,22.20
2018-09-13T13:00:06.544Z,22.20
2018-09-13T13:01:12.020Z,22.10
2018-09-13T13:02:17.602Z,21.80
2018-09-13T13:03:22.996Z,21.50
2018-09-13T13:04:28.420Z,21.40
2018-09-13T13:05:33.875Z,21.10
2018-09-13T13:06:39.366Z,21.00
2018-09-13T13:07:44.800Z,20.80
2018-09-13T13:08:50.216Z,20.70
2018-09-13T13:09:55.660Z,20.50
2018-09-13T13:11:01.132Z,20.50
2018-09-13T13:12:07.041Z,20.50
2018-09-13T13:13:13.589Z,20.50
2018-09-13T13:14:19.043Z,20.40
2018-09-13T13:15:24.492Z,20.40
2018-09-13T13:16:29.983Z,20.20
2018-09-13T13:17:35.375Z,20.20
2018-09-13T13:18:40.841Z,20.20
2018-09-13T13:19:46.310Z,20.20
2018-09-13T13:20:51.710Z,20.30
2018-09-13T13:21:57.164Z,20.30
2018-09-13T13:23:02.639Z,20.30
2018-09-13T13:24:08.125Z,20.30
2018-09-13T13:25:13.608Z,20.40
2018-09-13T13:26:19.025Z,20.50
2018-09-13T13:27:24.491Z,20.70
2018-09-13T13:28:29.998Z,20.90
2018-09-13T13:29:35.721Z,20.90
2018-09-13T13:30:41.244Z,20.90
2018-09-13T13:31:46.778Z,21.00
2018-09-13T13:32:52.573Z,21.20
2018-09-13T13:33:57.999Z,21.20
2018-09-13T13:35:03.997Z,21.20
2018-09-13T13:36:09.427Z,21.00
2018-09-13T13:37:14.852Z,21.00
2018-09-13T13:38:20.616Z,21.10
2018-09-13T13:39:26.067Z,21.00
2018-09-13T13:40:31.481Z,21.10
2018-09-13T13:41:36.932Z,21.30
2018-09-13T13:42:42.485Z,21.30
2018-09-13T13:43:48.064Z,21.40
2018-09-13T13:44:53.453Z,21.50
2018-09-13T13:45:58.931Z,21.50
2018-09-13T13:47:04.473Z,21.40
2018-09-13T13:48:10.012Z,21.60
2018-09-13T13:49:15.409Z,21.50
2018-09-13T13:50:20.849Z,21.50
2018-09-13T13:51:26.278Z,21.50
2018-09-13T13:52:31.649Z,21.50
2018-09-13T13:53:37.126Z,21.40
2018-09-13T13:54:42.518Z,21.50
2018-09-13T13:55:47.990Z,21.50
2018-09-13T13:56:53.357Z,21.30
2018-09-13T13:57:58.760Z,21.30
2018-09-13T13:59:04.255Z,21.40
2018-09-13T14:00:09.712Z,21.40
2018-09-13T14:01:15.169Z,21.40
2018-09-13T14:02:20.652Z,21.30
2018-09-13T14:03:26.035Z,21.20
2018-09-13T14:04:31.555Z,21.20
2018-09-13T14:05:37.012Z,21.10
2018-09-13T14:06:42.470Z,21.00